Blue Star Paros — SVJH — position and weather

sailwx.info

Track history (hours):
 
Tides and Currents Weather Stations Pressure Air Temp Water Temp Dewpoint Dewpoint Depression Visibility Wind Speed Wind Dir Waves Ship Positions

Blue Star Paros

Last reported at 2017-Sep-21 18:18 UTC. Time now 2017-Sep-25 09:53 UTC.
Position N 37°10' E 025°48'.

Length 124 m; draft 5 m.

Type: Passenger vessel. MMSI: 239924000.

Date/timePositionNaut miles runAvg speedWind from/ knotsBaromVisibWave heightAir tempDewpointWater temp
2017-Sep-21 18:18N 37°10' E 025°48'619.5
2017-Sep-21 18:00N 37°12' E 025°41'1020.1
2017-Sep-21 17:30N 37°14' E 025°29'1020.0
2017-Sep-21 17:00N 37°16' E 025°16'1019.6
2017-Sep-21 16:30N 37°18' E 025°04'1019.2
2017-Sep-21 16:00N 37°21' E 024°53'4619.5
2017-Sep-21 13:38N 37°36' E 023°57'519.5
2017-Sep-21 13:22N 37°37' E 023°51'719.3
2017-Sep-21 13:00N 37°40' E 023°43'1019.9
2017-Sep-21 12:30N 37°49' E 023°38'714.8
2017-Sep-21 12:00N 37°56' E 023°38'0 0.0
2017-Sep-21 11:30N 37°56' E 023°38'0 0.0
2017-Sep-21 11:00N 37°56' E 023°38'0 0.0
2017-Sep-21 10:30N 37°56' E 023°38'0 0.0
2017-Sep-21 10:00N 37°56' E 023°38'0 0.0
2017-Sep-21 09:30N 37°56' E 023°38'0 0.0
2017-Sep-21 09:00N 37°56' E 023°38'0 0.0
2017-Sep-21 08:30N 37°56' E 023°38'0 0.0
2017-Sep-21 08:00N 37°56' E 023°38'0 0.0
2017-Sep-21 07:30N 37°56' E 023°38'0 0.0
2017-Sep-21 07:00N 37°56' E 023°38'0 0.0
2017-Sep-21 06:30N 37°56' E 023°38'510.2
2017-Sep-21 06:00N 37°52' E 023°39'1019.2
2017-Sep-21 05:30N 37°43' E 023°45'918.8
2017-Sep-21 05:00N 37°38' E 023°55'1618.8
2017-Sep-21 04:10N 37°32' E 024°13'2619.2
2017-Sep-21 02:49N 37°24' E 024°44'619.1
2017-Sep-21 02:30N 37°21' E 024°51'1019.1
2017-Sep-21 02:00N 37°20' E 025°03'1019.1
2017-Sep-21 01:30N 37°20' E 025°15'1019.1
2017-Sep-21 01:00N 37°20' E 025°27'1118.9
2017-Sep-21 00:25N 37°19' E 025°41'819.9
2017-Sep-21 00:00N 37°19' E 025°51'2 0.1
2017-Sep-19 18:34N 37°17' E 025°53'119.4
2017-Sep-19 18:30N 37°17' E 025°52'1019.6
2017-Sep-19 17:59N 37°18' E 025°39'919.0
2017-Sep-19 17:30N 37°19' E 025°27'1019.4
2017-Sep-19 17:00N 37°20' E 025°15'1019.4
2017-Sep-19 16:30N 37°20' E 025°03'1019.5
2017-Sep-19 16:00N 37°21' E 024°51'4319.4
2017-Sep-19 13:46N 37°35' E 023°59'519.3
2017-Sep-19 13:30N 37°37' E 023°53'918.8
2017-Sep-19 13:00N 37°41' E 023°42'1019.3
2017-Sep-19 12:30N 37°50' E 023°37'713.8
2017-Sep-19 12:00N 37°56' E 023°37'0 0.0
2017-Sep-19 11:30N 37°56' E 023°37'0 0.0
2017-Sep-19 11:00N 37°56' E 023°37'0 0.0
2017-Sep-19 10:30N 37°56' E 023°37'0 0.0
2017-Sep-19 10:00N 37°56' E 023°37'0 0.0
2017-Sep-19 09:30N 37°56' E 023°37'0 0.0
2017-Sep-19 09:00N 37°56' E 023°37'0 0.0
2017-Sep-19 08:30N 37°56' E 023°37'0 0.0
2017-Sep-19 08:00N 37°56' E 023°37'0 0.0
2017-Sep-19 07:30N 37°56' E 023°37'0 0.0
2017-Sep-19 07:00N 37°56' E 023°37'816.6
2017-Sep-19 06:31N 37°49' E 023°41'1121.4
2017-Sep-19 06:00N 37°40' E 023°49'1121.9
2017-Sep-19 05:30N 37°33' E 023°59'1121.8
2017-Sep-19 05:00N 37°26' E 024°10'  
2017-Sep-16 15:22N 37°35' E 023°51'719.4
2017-Sep-16 15:01N 37°39' E 023°44'1019.3
2017-Sep-16 14:31N 37°48' E 023°39'917.6
2017-Sep-16 14:00N 37°56' E 023°37'0 0.1
2017-Sep-16 13:30N 37°56' E 023°37'0 0.0
2017-Sep-16 13:00N 37°56' E 023°37'0 0.0
2017-Sep-16 12:30N 37°56' E 023°37'0 0.0
2017-Sep-16 12:00N 37°56' E 023°37'0 0.0
2017-Sep-16 11:30N 37°56' E 023°37'0 0.0
2017-Sep-16 11:00N 37°56' E 023°37'0 0.0
2017-Sep-16 10:30N 37°56' E 023°37'0 0.0
2017-Sep-16 10:00N 37°56' E 023°37'0 0.7
2017-Sep-16 09:31N 37°56' E 023°37'1019.3
2017-Sep-16 09:01N 37°47' E 023°42'918.8
2017-Sep-16 08:30N 37°40' E 023°49'1020.0
2017-Sep-16 07:59N 37°36' E 024°02'3619.8
2017-Sep-16 06:11N 37°24' E 024°44'320.0
2017-Sep-16 06:00N 37°23' E 024°48'1020.2
2017-Sep-16 05:30N 37°20' E 025°00'1020.3
2017-Sep-16 05:00N 37°17' E 025°12'1020.3
2017-Sep-16 04:31N 37°15' E 025°25'1120.0
2017-Sep-16 03:57N 37°12' E 025°38'8 0.2
2017-Sep-14 18:26N 37°11' E 025°48'1219.4
2017-Sep-14 17:49N 37°13' E 025°34'619.0
2017-Sep-14 17:30N 37°14' E 025°26'919.0
2017-Sep-14 17:00N 37°16' E 025°15'918.9
2017-Sep-14 16:30N 37°19' E 025°03'1019.2
2017-Sep-14 16:00N 37°21' E 024°52'4519.3
2017-Sep-14 13:40N 37°35' E 023°57'319.7
2017-Sep-14 13:30N 37°37' E 023°54'919.4
2017-Sep-14 13:01N 37°40' E 023°43'1019.9
2017-Sep-14 12:30N 37°50' E 023°37'713.7
2017-Sep-14 12:00N 37°56' E 023°37'0 0.0
2017-Sep-14 11:30N 37°56' E 023°37'0 0.0
2017-Sep-14 11:00N 37°56' E 023°37'0 0.0
2017-Sep-14 10:30N 37°56' E 023°37'0 0.0
2017-Sep-14 10:00N 37°56' E 023°37'0 0.0
2017-Sep-14 09:30N 37°56' E 023°37'0 0.0
2017-Sep-14 09:00N 37°56' E 023°37'0 0.0
2017-Sep-14 08:30N 37°56' E 023°37'0 0.0
2017-Sep-14 08:00N 37°56' E 023°37'0 0.0
2017-Sep-14 07:31N 37°56' E 023°37'0 0.0
2017-Sep-14 07:00N 37°56' E 023°37'0 0.0
2017-Sep-14 06:30N 37°56' E 023°37'0 1.0
2017-Sep-14 06:01N 37°56' E 023°37'918.7
2017-Sep-14 05:30N 37°47' E 023°42'918.4
2017-Sep-14 05:00N 37°40' E 023°49'4619.7
2017-Sep-14 02:40N 37°24' E 024°44'320.1
2017-Sep-14 02:30N 37°23' E 024°47'1019.8
2017-Sep-14 02:01N 37°21' E 024°59'1020.4
2017-Sep-14 01:30N 37°20' E 025°12'1020.4
2017-Sep-14 01:00N 37°19' E 025°25'1220.3
2017-Sep-14 00:24N 37°19' E 025°41'820.2
2017-Sep-14 00:00N 37°18' E 025°50'2 0.1
2017-Sep-12 18:19N 37°17' E 025°53'1819.4
2017-Sep-12 17:24N 37°19' E 025°31'820.0
2017-Sep-12 17:01N 37°19' E 025°21'1020.4
2017-Sep-12 16:31N 37°20' E 025°08'1020.1
2017-Sep-12 16:01N 37°21' E 024°56'4819.9
2017-Sep-12 13:34N 37°35' E 023°58'320.5
2017-Sep-12 13:25N 37°36' E 023°54'820.0
2017-Sep-12 13:00N 37°39' E 023°44'1019.8
2017-Sep-12 12:31N 37°48' E 023°38'917.0
2017-Sep-12 12:00N 37°56' E 023°37'0 0.0
2017-Sep-12 11:30N 37°56' E 023°37'0 0.0
2017-Sep-12 11:00N 37°56' E 023°37'0 0.0
2017-Sep-12 10:30N 37°56' E 023°37'0 0.0
2017-Sep-12 10:00N 37°56' E 023°37'0 0.0
2017-Sep-12 09:30N 37°56' E 023°37'0 0.0
2017-Sep-12 09:00N 37°56' E 023°37'0 0.0
2017-Sep-12 08:30N 37°56' E 023°37'0 0.0
2017-Sep-12 08:00N 37°56' E 023°37'0 0.0
2017-Sep-12 07:30N 37°56' E 023°37'4 8.8
2017-Sep-12 07:01N 37°52' E 023°39'1121.8
2017-Sep-12 06:30N 37°42' E 023°45'1121.4
2017-Sep-12 06:00N 37°35' E 023°54'  
Track history (hours):
 
Tides and Currents Weather Stations Pressure Air Temp Water Temp Dewpoint Dewpoint Depression Visibility Wind Speed Wind Dir Waves Ship Positions

Blue Star Paros

Last reported at 2017-Sep-21 18:18 UTC. Time now 2017-Sep-25 09:53 UTC.
Position N 37°10' E 025°48'.

Length 124 m; draft 5 m.

Type: Passenger vessel. MMSI: 239924000.

Date/timePositionNaut miles runAvg speedWind from/ knotsBaromVisibWave heightAir tempDewpointWater temp
2017-Sep-21 18:18N 37°10' E 025°48'619.5
2017-Sep-21 18:00N 37°12' E 025°41'1020.1
2017-Sep-21 17:30N 37°14' E 025°29'1020.0
2017-Sep-21 17:00N 37°16' E 025°16'1019.6
2017-Sep-21 16:30N 37°18' E 025°04'1019.2
2017-Sep-21 16:00N 37°21' E 024°53'4619.5
2017-Sep-21 13:38N 37°36' E 023°57'519.5
2017-Sep-21 13:22N 37°37' E 023°51'719.3
2017-Sep-21 13:00N 37°40' E 023°43'1019.9
2017-Sep-21 12:30N 37°49' E 023°38'714.8
2017-Sep-21 12:00N 37°56' E 023°38'0 0.0
2017-Sep-21 11:30N 37°56' E 023°38'0 0.0
2017-Sep-21 11:00N 37°56' E 023°38'0 0.0
2017-Sep-21 10:30N 37°56' E 023°38'0 0.0
2017-Sep-21 10:00N 37°56' E 023°38'0 0.0
2017-Sep-21 09:30N 37°56' E 023°38'0 0.0
2017-Sep-21 09:00N 37°56' E 023°38'0 0.0
2017-Sep-21 08:30N 37°56' E 023°38'0 0.0
2017-Sep-21 08:00N 37°56' E 023°38'0 0.0
2017-Sep-21 07:30N 37°56' E 023°38'0 0.0
2017-Sep-21 07:00N 37°56' E 023°38'0 0.0
2017-Sep-21 06:30N 37°56' E 023°38'510.2
2017-Sep-21 06:00N 37°52' E 023°39'1019.2
2017-Sep-21 05:30N 37°43' E 023°45'918.8
2017-Sep-21 05:00N 37°38' E 023°55'1618.8
2017-Sep-21 04:10N 37°32' E 024°13'2619.2
2017-Sep-21 02:49N 37°24' E 024°44'619.1
2017-Sep-21 02:30N 37°21' E 024°51'1019.1
2017-Sep-21 02:00N 37°20' E 025°03'1019.1
2017-Sep-21 01:30N 37°20' E 025°15'1019.1
2017-Sep-21 01:00N 37°20' E 025°27'1118.9
2017-Sep-21 00:25N 37°19' E 025°41'819.9
2017-Sep-21 00:00N 37°19' E 025°51'2 0.1
2017-Sep-19 18:34N 37°17' E 025°53'119.4
2017-Sep-19 18:30N 37°17' E 025°52'1019.6
2017-Sep-19 17:59N 37°18' E 025°39'919.0
2017-Sep-19 17:30N 37°19' E 025°27'1019.4
2017-Sep-19 17:00N 37°20' E 025°15'1019.4
2017-Sep-19 16:30N 37°20' E 025°03'1019.5
2017-Sep-19 16:00N 37°21' E 024°51'4319.4
2017-Sep-19 13:46N 37°35' E 023°59'519.3
2017-Sep-19 13:30N 37°37' E 023°53'918.8
2017-Sep-19 13:00N 37°41' E 023°42'1019.3
2017-Sep-19 12:30N 37°50' E 023°37'713.8
2017-Sep-19 12:00N 37°56' E 023°37'0 0.0
2017-Sep-19 11:30N 37°56' E 023°37'0 0.0
2017-Sep-19 11:00N 37°56' E 023°37'0 0.0
2017-Sep-19 10:30N 37°56' E 023°37'0 0.0
2017-Sep-19 10:00N 37°56' E 023°37'0 0.0
2017-Sep-19 09:30N 37°56' E 023°37'0 0.0
2017-Sep-19 09:00N 37°56' E 023°37'0 0.0
2017-Sep-19 08:30N 37°56' E 023°37'0 0.0
2017-Sep-19 08:00N 37°56' E 023°37'0 0.0
2017-Sep-19 07:30N 37°56' E 023°37'0 0.0
2017-Sep-19 07:00N 37°56' E 023°37'816.6
2017-Sep-19 06:31N 37°49' E 023°41'1121.4
2017-Sep-19 06:00N 37°40' E 023°49'1121.9
2017-Sep-19 05:30N 37°33' E 023°59'1121.8
2017-Sep-19 05:00N 37°26' E 024°10'  
2017-Sep-16 15:22N 37°35' E 023°51'719.4
2017-Sep-16 15:01N 37°39' E 023°44'1019.3
2017-Sep-16 14:31N 37°48' E 023°39'917.6
2017-Sep-16 14:00N 37°56' E 023°37'0 0.1
2017-Sep-16 13:30N 37°56' E 023°37'0 0.0
2017-Sep-16 13:00N 37°56' E 023°37'0 0.0
2017-Sep-16 12:30N 37°56' E 023°37'0 0.0
2017-Sep-16 12:00N 37°56' E 023°37'0 0.0
2017-Sep-16 11:30N 37°56' E 023°37'0 0.0
2017-Sep-16 11:00N 37°56' E 023°37'0 0.0
2017-Sep-16 10:30N 37°56' E 023°37'0 0.0
2017-Sep-16 10:00N 37°56' E 023°37'0 0.7
2017-Sep-16 09:31N 37°56' E 023°37'1019.3
2017-Sep-16 09:01N 37°47' E 023°42'918.8
2017-Sep-16 08:30N 37°40' E 023°49'1020.0
2017-Sep-16 07:59N 37°36' E 024°02'3619.8
2017-Sep-16 06:11N 37°24' E 024°44'320.0
2017-Sep-16 06:00N 37°23' E 024°48'1020.2
2017-Sep-16 05:30N 37°20' E 025°00'1020.3
2017-Sep-16 05:00N 37°17' E 025°12'1020.3
2017-Sep-16 04:31N 37°15' E 025°25'1120.0
2017-Sep-16 03:57N 37°12' E 025°38'8 0.2
2017-Sep-14 18:26N 37°11' E 025°48'1219.4
2017-Sep-14 17:49N 37°13' E 025°34'619.0
2017-Sep-14 17:30N 37°14' E 025°26'919.0
2017-Sep-14 17:00N 37°16' E 025°15'918.9
2017-Sep-14 16:30N 37°19' E 025°03'1019.2
2017-Sep-14 16:00N 37°21' E 024°52'4519.3
2017-Sep-14 13:40N 37°35' E 023°57'319.7
2017-Sep-14 13:30N 37°37' E 023°54'919.4
2017-Sep-14 13:01N 37°40' E 023°43'1019.9
2017-Sep-14 12:30N 37°50' E 023°37'713.7
2017-Sep-14 12:00N 37°56' E 023°37'0 0.0
2017-Sep-14 11:30N 37°56' E 023°37'0 0.0
2017-Sep-14 11:00N 37°56' E 023°37'0 0.0
2017-Sep-14 10:30N 37°56' E 023°37'0 0.0
2017-Sep-14 10:00N 37°56' E 023°37'0 0.0
2017-Sep-14 09:30N 37°56' E 023°37'0 0.0
2017-Sep-14 09:00N 37°56' E 023°37'0 0.0
2017-Sep-14 08:30N 37°56' E 023°37'0 0.0
2017-Sep-14 08:00N 37°56' E 023°37'0 0.0
2017-Sep-14 07:31N 37°56' E 023°37'0 0.0
2017-Sep-14 07:00N 37°56' E 023°37'0 0.0
2017-Sep-14 06:30N 37°56' E 023°37'0 1.0
2017-Sep-14 06:01N 37°56' E 023°37'918.7
2017-Sep-14 05:30N 37°47' E 023°42'918.4
2017-Sep-14 05:00N 37°40' E 023°49'4619.7
2017-Sep-14 02:40N 37°24' E 024°44'320.1
2017-Sep-14 02:30N 37°23' E 024°47'1019.8
2017-Sep-14 02:01N 37°21' E 024°59'1020.4
2017-Sep-14 01:30N 37°20' E 025°12'1020.4
2017-Sep-14 01:00N 37°19' E 025°25'1220.3
2017-Sep-14 00:24N 37°19' E 025°41'820.2
2017-Sep-14 00:00N 37°18' E 025°50'2 0.1
2017-Sep-12 18:19N 37°17' E 025°53'1819.4
2017-Sep-12 17:24N 37°19' E 025°31'820.0
2017-Sep-12 17:01N 37°19' E 025°21'1020.4
2017-Sep-12 16:31N 37°20' E 025°08'1020.1
2017-Sep-12 16:01N 37°21' E 024°56'4819.9
2017-Sep-12 13:34N 37°35' E 023°58'320.5
2017-Sep-12 13:25N 37°36' E 023°54'820.0
2017-Sep-12 13:00N 37°39' E 023°44'1019.8
2017-Sep-12 12:31N 37°48' E 023°38'917.0
2017-Sep-12 12:00N 37°56' E 023°37'0 0.0
2017-Sep-12 11:30N 37°56' E 023°37'0 0.0
2017-Sep-12 11:00N 37°56' E 023°37'0 0.0
2017-Sep-12 10:30N 37°56' E 023°37'0 0.0
2017-Sep-12 10:00N 37°56' E 023°37'0 0.0
2017-Sep-12 09:30N 37°56' E 023°37'0 0.0
2017-Sep-12 09:00N 37°56' E 023°37'0 0.0
2017-Sep-12 08:30N 37°56' E 023°37'0 0.0
2017-Sep-12 08:00N 37°56' E 023°37'0 0.0
2017-Sep-12 07:30N 37°56' E 023°37'4 8.8
2017-Sep-12 07:01N 37°52' E 023°39'1121.8
2017-Sep-12 06:30N 37°42' E 023°45'1121.4
2017-Sep-12 06:00N 37°35' E 023°54'  

Dump ship's entire track history